createdAt,value
2018-05-31T00:04:03.480Z,25.50
2018-05-31T00:06:30.832Z,25.30
2018-05-31T00:11:27.578Z,24.60
2018-05-31T00:13:54.914Z,24.60
2018-05-31T00:16:22.479Z,24.00
2018-05-31T00:18:49.853Z,23.70
2018-05-31T00:21:18.086Z,23.80
2018-05-31T00:23:45.400Z,23.60
2018-05-31T00:26:12.728Z,23.40
2018-05-31T00:36:05.502Z,24.90
2018-05-31T00:38:32.979Z,25.30
2018-05-31T00:43:28.600Z,25.50
2018-05-31T00:48:24.375Z,25.20
2018-05-31T00:53:19.990Z,25.60
2018-05-31T00:55:59.310Z,25.70
2018-05-31T00:58:26.542Z,25.60
2018-05-31T01:00:53.906Z,25.30
2018-05-31T01:03:21.208Z,25.00
2018-05-31T01:05:48.776Z,25.00
2018-05-31T01:08:16.202Z,25.10
2018-05-31T01:10:44.252Z,25.00
2018-05-31T01:13:11.623Z,24.60
2018-05-31T01:15:39.657Z,23.80
2018-05-31T01:18:06.966Z,23.90
2018-05-31T01:20:34.985Z,24.10
2018-05-31T01:23:03.035Z,24.10
2018-05-31T01:27:58.625Z,23.90
2018-05-31T01:32:54.919Z,24.70
2018-05-31T01:35:22.689Z,25.00
2018-05-31T01:37:49.978Z,25.10
2018-05-31T01:40:17.291Z,24.90
2018-05-31T01:42:44.627Z,24.50
2018-05-31T01:50:08.403Z,24.20
2018-05-31T01:52:35.787Z,24.40
2018-05-31T01:55:03.846Z,24.80
2018-05-31T01:57:31.862Z,25.00
2018-05-31T01:59:59.194Z,24.80
2018-05-31T02:02:26.532Z,24.70
2018-05-31T02:04:54.676Z,24.60
2018-05-31T02:07:22.701Z,24.60
2018-05-31T02:12:19.134Z,24.70
2018-05-31T02:17:14.825Z,24.80
2018-05-31T02:19:42.891Z,24.70
2018-05-31T02:22:10.219Z,24.50
2018-05-31T02:24:37.551Z,24.40
2018-05-31T02:27:04.875Z,24.20
2018-05-31T02:29:32.186Z,24.20
2018-05-31T02:31:59.503Z,24.20
2018-05-31T02:34:26.849Z,24.10
2018-05-31T02:36:54.876Z,24.10
2018-05-31T02:39:22.514Z,24.00
2018-05-31T02:41:49.916Z,23.90
2018-05-31T02:44:17.463Z,23.70
2018-05-31T02:46:45.615Z,23.30
2018-05-31T02:49:13.742Z,23.30
2018-05-31T02:51:41.097Z,23.60
2018-05-31T02:54:08.452Z,23.80
2018-05-31T02:56:36.488Z,23.50
2018-05-31T02:59:04.555Z,23.30
2018-05-31T03:04:00.153Z,23.30
2018-05-31T03:06:28.234Z,23.40
2018-05-31T03:11:24.579Z,23.30
2018-05-31T03:13:51.942Z,23.00
2018-05-31T03:16:20.007Z,23.10
2018-05-31T03:18:48.259Z,23.50
2018-05-31T03:23:43.856Z,24.20
2018-05-31T03:26:11.198Z,24.80
2018-05-31T03:28:39.211Z,25.40
2018-05-31T03:31:07.378Z,25.80
2018-05-31T03:33:34.733Z,25.60
2018-05-31T03:38:31.031Z,23.50
2018-05-31T03:40:59.095Z,23.30
2018-05-31T03:45:55.402Z,22.90
2018-05-31T03:48:23.457Z,22.90
2018-05-31T03:50:50.751Z,23.50
2018-05-31T03:55:46.279Z,24.90
2018-05-31T04:00:41.835Z,25.10
2018-05-31T04:03:09.187Z,25.50
2018-05-31T04:08:04.667Z,25.60
2018-05-31T04:13:00.238Z,25.70
2018-05-31T04:15:27.538Z,25.90
2018-05-31T04:17:54.910Z,26.10
2018-05-31T04:20:22.214Z,26.30
2018-05-31T04:22:49.525Z,25.30
2018-05-31T04:27:45.105Z,23.60
2018-05-31T04:30:12.404Z,23.80
2018-05-31T04:32:39.803Z,24.00
2018-05-31T04:35:07.131Z,24.20
2018-05-31T04:40:02.700Z,25.40
2018-05-31T04:42:30.224Z,25.70
2018-05-31T04:44:57.507Z,25.70
2018-05-31T04:49:53.805Z,26.00
2018-05-31T04:54:49.386Z,25.90
2018-05-31T04:57:16.973Z,26.00
2018-05-31T05:02:13.701Z,25.10
2018-05-31T05:04:41.022Z,25.10
2018-05-31T05:07:09.043Z,25.40
2018-05-31T05:09:37.122Z,25.20
2018-05-31T05:12:04.406Z,24.90
2018-05-31T05:14:32.504Z,24.50
2018-05-31T05:16:59.810Z,24.20
2018-05-31T05:19:28.051Z,24.10
2018-05-31T05:24:23.590Z,24.10
2018-05-31T05:26:51.652Z,24.30
2018-05-31T05:29:18.959Z,24.20
2018-05-31T05:31:47.371Z,24.50
2018-05-31T05:34:15.449Z,24.90
2018-05-31T05:39:10.977Z,24.60
2018-05-31T05:41:38.311Z,24.50
2018-05-31T05:49:02.123Z,24.80
2018-05-31T05:51:30.298Z,24.70
2018-05-31T05:53:57.656Z,24.90
2018-05-31T05:56:25.865Z,25.20
2018-05-31T06:01:21.458Z,25.30
2018-05-31T06:03:48.781Z,25.20
2018-05-31T06:06:16.079Z,25.10
2018-05-31T06:08:43.659Z,24.90
2018-05-31T06:13:39.269Z,24.90
2018-05-31T06:16:07.327Z,25.10
2018-05-31T06:21:02.966Z,25.20
2018-05-31T06:23:30.991Z,25.50
2018-05-31T06:28:26.663Z,26.00
2018-05-31T06:30:54.729Z,26.10
2018-05-31T06:33:22.770Z,26.00
2018-05-31T06:35:50.830Z,25.70
2018-05-31T06:38:18.876Z,25.60
2018-05-31T06:45:43.058Z,25.90
2018-05-31T06:50:38.618Z,25.50
2018-05-31T06:53:05.898Z,25.40
2018-05-31T07:00:29.641Z,24.80
2018-05-31T07:02:57.778Z,24.30
2018-05-31T07:05:25.835Z,24.50
2018-05-31T07:07:53.198Z,24.80
2018-05-31T07:10:20.494Z,25.30
2018-05-31T07:12:48.775Z,25.60
2018-05-31T07:15:16.078Z,25.70
2018-05-31T07:17:44.106Z,25.50
2018-05-31T07:20:12.262Z,25.70
2018-05-31T07:22:39.583Z,25.80
2018-05-31T07:25:07.803Z,25.80
2018-05-31T07:27:35.114Z,26.00
2018-05-31T07:30:02.484Z,26.40
2018-05-31T07:32:30.600Z,26.40
2018-05-31T07:37:26.452Z,26.70
2018-05-31T07:39:54.515Z,26.80
2018-05-31T07:44:50.078Z,26.80
2018-05-31T07:47:18.345Z,26.90
2018-05-31T07:49:46.421Z,27.00
2018-05-31T07:52:14.489Z,27.20
2018-05-31T07:57:10.058Z,27.20
2018-05-31T07:59:38.166Z,27.20
2018-05-31T08:04:33.956Z,27.30
2018-05-31T08:07:01.267Z,27.30
2018-05-31T08:09:29.339Z,27.30
2018-05-31T08:11:57.725Z,27.40
2018-05-31T08:14:26.137Z,27.40
2018-05-31T08:19:21.668Z,27.50
2018-05-31T08:21:49.010Z,28.00
2018-05-31T08:24:17.050Z,28.20
2018-05-31T08:26:45.127Z,28.00
2018-05-31T08:29:13.208Z,28.00
2018-05-31T08:34:08.804Z,28.10
2018-05-31T08:36:36.149Z,28.30
2018-05-31T08:39:03.445Z,28.30
2018-05-31T08:43:59.935Z,28.50
2018-05-31T08:46:28.042Z,28.70
2018-05-31T08:48:55.344Z,28.60
2018-05-31T08:51:22.661Z,28.50
2018-05-31T08:53:50.414Z,28.30
2018-05-31T09:01:14.106Z,28.00
2018-05-31T09:03:41.440Z,27.90
2018-05-31T09:06:08.723Z,27.90
2018-05-31T09:08:36.795Z,28.00
2018-05-31T09:11:04.506Z,28.40
2018-05-31T09:13:31.904Z,28.60
2018-05-31T09:15:59.209Z,28.60
2018-05-31T09:18:27.264Z,28.80
2018-05-31T09:20:54.644Z,28.90
2018-05-31T09:23:22.961Z,28.80
2018-05-31T09:25:50.380Z,28.60
2018-05-31T09:35:43.660Z,28.30
2018-05-31T09:40:39.126Z,28.60
2018-05-31T09:43:06.426Z,28.80
2018-05-31T09:45:33.730Z,28.80
2018-05-31T09:48:01.804Z,28.70
2018-05-31T09:50:29.095Z,28.70
2018-05-31T09:52:57.170Z,28.90
2018-05-31T09:55:24.659Z,29.40
2018-05-31T09:57:51.943Z,29.20
2018-05-31T10:05:46.659Z,28.90
2018-05-31T10:08:24.749Z,28.90
2018-05-31T10:10:54.662Z,29.60
2018-05-31T10:16:11.182Z,29.80
2018-05-31T10:18:45.889Z,29.90
2018-05-31T10:21:19.249Z,30.60
2018-05-31T10:26:18.387Z,31.10
2018-05-31T10:31:16.743Z,31.40
2018-05-31T10:36:13.262Z,30.70
2018-05-31T10:38:44.150Z,30.80
2018-05-31T10:43:46.318Z,31.60
2018-05-31T10:46:13.736Z,31.90
2018-05-31T10:48:42.891Z,31.90
2018-05-31T10:51:10.967Z,31.60
2018-05-31T10:53:43.841Z,31.50
2018-05-31T10:56:15.702Z,31.30
2018-05-31T10:58:44.575Z,31.40
2018-05-31T11:01:12.001Z,31.50
2018-05-31T11:06:22.843Z,32.10
2018-05-31T11:08:50.858Z,31.80
2018-05-31T11:13:50.263Z,31.50
2018-05-31T11:16:18.482Z,31.50
2018-05-31T11:18:45.817Z,31.20
2018-05-31T11:21:14.217Z,31.40
2018-05-31T11:23:45.423Z,31.70
2018-05-31T11:26:12.722Z,31.10
2018-05-31T11:28:43.713Z,30.30
2018-05-31T11:31:12.781Z,29.70
2018-05-31T11:33:41.111Z,29.40
2018-05-31T11:36:08.447Z,29.20
2018-05-31T11:38:36.644Z,29.00
2018-05-31T11:41:09.439Z,28.80
2018-05-31T11:43:42.711Z,28.90
2018-05-31T11:46:10.107Z,29.50
2018-05-31T11:48:38.203Z,29.80
2018-05-31T11:51:08.399Z,29.90
2018-05-31T11:53:36.471Z,29.80
2018-05-31T11:56:04.528Z,29.70
2018-05-31T11:58:31.843Z,29.80
2018-05-31T12:01:02.003Z,30.10
2018-05-31T12:03:30.934Z,30.00
2018-05-31T12:05:59.910Z,30.00
2018-05-31T12:08:29.770Z,30.20
2018-05-31T12:10:59.154Z,30.30
2018-05-31T12:13:29.246Z,30.20
2018-05-31T12:15:56.536Z,30.10
2018-05-31T12:18:23.999Z,30.20
2018-05-31T12:20:51.314Z,30.30
2018-05-31T12:23:18.732Z,30.50
2018-05-31T12:25:49.707Z,30.20
2018-05-31T12:28:20.326Z,29.70
2018-05-31T12:30:52.300Z,29.40
2018-05-31T12:33:19.603Z,29.40
2018-05-31T12:35:46.955Z,29.30
2018-05-31T12:43:13.637Z,29.10
2018-05-31T12:45:42.669Z,28.90
2018-05-31T12:48:12.715Z,28.80
2018-05-31T12:50:40.882Z,28.60
2018-05-31T12:53:15.522Z,28.40
2018-05-31T12:55:45.612Z,28.30
2018-05-31T12:58:14.749Z,28.20
2018-05-31T13:03:13.882Z,28.10
2018-05-31T13:05:44.263Z,28.10
2018-05-31T13:10:50.188Z,28.10
2018-05-31T13:13:23.699Z,28.10
2018-05-31T13:18:28.862Z,27.90
2018-05-31T13:21:01.419Z,27.80
2018-05-31T13:23:31.943Z,27.80
2018-05-31T13:31:04.671Z,28.00
2018-05-31T13:33:32.756Z,28.20
2018-05-31T13:36:02.056Z,28.50
2018-05-31T13:38:31.095Z,28.60
2018-05-31T13:41:03.247Z,28.40
2018-05-31T13:43:32.467Z,28.20
2018-05-31T13:46:02.523Z,28.30
2018-05-31T13:48:29.840Z,28.60
2018-05-31T13:50:57.172Z,28.50
2018-05-31T13:53:25.367Z,28.20
2018-05-31T13:55:52.709Z,28.10
2018-05-31T13:58:22.900Z,28.00
2018-05-31T14:00:53.078Z,28.00
2018-05-31T14:03:22.358Z,27.80
2018-05-31T14:05:50.670Z,27.90
2018-05-31T14:08:19.050Z,27.80
2018-05-31T14:10:48.289Z,27.80
2018-05-31T14:13:16.726Z,27.80
2018-05-31T14:15:44.883Z,27.80
2018-05-31T14:18:13.903Z,27.80
2018-05-31T14:20:44.016Z,27.70
2018-05-31T14:23:14.165Z,27.70
2018-05-31T14:25:58.267Z,27.70
2018-05-31T14:28:30.108Z,27.80
2018-05-31T14:31:03.997Z,27.60
2018-05-31T14:33:42.814Z,27.60
2018-05-31T14:36:22.261Z,27.50
2018-05-31T14:38:59.226Z,27.90
2018-05-31T14:41:34.387Z,28.10
2018-05-31T14:44:05.374Z,28.00
2018-05-31T14:46:37.297Z,27.80
2018-05-31T14:51:57.634Z,27.90
2018-05-31T14:54:25.879Z,27.90
2018-05-31T14:56:53.253Z,28.00
2018-05-31T14:59:20.635Z,28.00
2018-05-31T15:01:48.002Z,28.10
2018-05-31T15:04:16.134Z,28.00
2018-05-31T15:06:44.297Z,28.00
2018-05-31T15:11:40.774Z,28.00
2018-05-31T15:14:08.231Z,28.00
2018-05-31T15:19:08.076Z,28.00
2018-05-31T15:21:47.158Z,28.00
2018-05-31T15:24:24.810Z,28.10
2018-05-31T15:26:56.564Z,28.20
2018-05-31T15:29:37.832Z,28.10
2018-05-31T15:32:16.780Z,28.10
2018-05-31T15:34:48.090Z,28.00
2018-05-31T15:37:19.481Z,27.90
2018-05-31T15:39:51.755Z,27.90
2018-05-31T15:42:21.744Z,27.80
2018-05-31T15:44:50.068Z,27.70
2018-05-31T15:47:20.995Z,27.50
2018-05-31T15:49:59.114Z,27.60
2018-05-31T15:52:30.713Z,27.70
2018-05-31T15:55:03.613Z,27.70
2018-05-31T15:57:49.561Z,27.80
2018-05-31T16:00:26.242Z,27.80
2018-05-31T16:02:58.008Z,27.90
2018-05-31T16:05:32.851Z,27.80
2018-05-31T16:08:03.136Z,27.90
2018-05-31T16:10:31.493Z,27.90
2018-05-31T16:13:03.623Z,27.90
2018-05-31T16:15:31.270Z,27.90
2018-05-31T16:18:05.295Z,27.90
2018-05-31T16:20:38.489Z,27.90
2018-05-31T16:23:07.702Z,27.90
2018-05-31T16:25:37.568Z,27.90
2018-05-31T16:28:08.606Z,27.80
2018-05-31T16:30:44.506Z,27.80
2018-05-31T16:33:21.376Z,27.70
2018-05-31T16:35:51.361Z,27.80
2018-05-31T16:38:22.259Z,27.80
2018-05-31T16:40:53.958Z,27.80
2018-05-31T16:43:22.281Z,27.80
2018-05-31T16:45:52.301Z,27.80
2018-05-31T16:48:22.420Z,27.80
2018-05-31T16:50:52.370Z,27.80
2018-05-31T16:53:23.367Z,27.80
2018-05-31T16:55:55.236Z,27.90
2018-05-31T16:58:26.895Z,27.80
2018-05-31T17:00:58.778Z,27.90
2018-05-31T17:03:29.968Z,27.90
2018-05-31T17:05:58.139Z,27.80
2018-05-31T17:08:25.439Z,27.70
2018-05-31T17:10:52.763Z,27.70
2018-05-31T17:13:26.480Z,27.70
2018-05-31T17:15:56.298Z,27.70
2018-05-31T17:18:26.737Z,27.70
2018-05-31T17:20:56.920Z,27.70
2018-05-31T17:23:25.183Z,27.70
2018-05-31T17:25:53.301Z,27.60
2018-05-31T17:28:21.487Z,27.60
2018-05-31T17:30:50.168Z,27.60
2018-05-31T17:33:18.344Z,27.50
2018-05-31T17:35:46.917Z,27.50
2018-05-31T17:38:18.746Z,27.50
2018-05-31T17:40:50.896Z,27.60
2018-05-31T17:43:24.800Z,27.60
2018-05-31T17:45:56.367Z,27.70
2018-05-31T17:48:24.600Z,27.70
2018-05-31T17:50:54.275Z,27.70
2018-05-31T17:53:25.508Z,27.60
2018-05-31T17:55:55.778Z,27.70
2018-05-31T17:58:24.854Z,27.60
2018-05-31T18:00:53.282Z,27.60
2018-05-31T18:03:24.520Z,27.60
2018-05-31T18:05:56.114Z,27.60
2018-05-31T18:08:26.157Z,27.60
2018-05-31T18:10:57.623Z,27.60
2018-05-31T18:13:25.760Z,27.60
2018-05-31T18:15:55.718Z,27.60
2018-05-31T18:18:24.833Z,27.70
2018-05-31T18:20:55.006Z,27.70
2018-05-31T18:23:24.371Z,27.70
2018-05-31T18:25:55.351Z,27.70
2018-05-31T18:28:25.220Z,27.80
2018-05-31T18:30:57.589Z,27.40
2018-05-31T18:33:29.608Z,27.10
2018-05-31T18:35:59.691Z,26.80
2018-05-31T18:38:28.970Z,27.10
2018-05-31T18:41:00.743Z,27.40
2018-05-31T18:43:35.249Z,27.50
2018-05-31T18:46:02.572Z,27.60
2018-05-31T18:48:33.439Z,27.60
2018-05-31T18:51:08.370Z,27.70
2018-05-31T18:53:35.671Z,27.70
2018-05-31T18:56:07.408Z,27.70
2018-05-31T18:58:39.402Z,27.70
2018-05-31T19:01:12.468Z,27.60
2018-05-31T19:03:45.234Z,27.50
2018-05-31T19:06:18.402Z,27.50
2018-05-31T19:08:52.445Z,27.50
2018-05-31T19:11:24.522Z,27.50
2018-05-31T19:13:59.419Z,27.50
2018-05-31T19:16:33.290Z,27.50
2018-05-31T19:19:10.652Z,27.50
2018-05-31T19:21:38.692Z,27.40
2018-05-31T19:24:14.001Z,27.40
2018-05-31T19:26:45.530Z,27.40
2018-05-31T19:29:14.619Z,27.40
2018-05-31T19:31:46.558Z,27.40
2018-05-31T19:34:14.770Z,27.40
2018-05-31T19:36:52.704Z,27.40
2018-05-31T19:39:19.952Z,27.40
2018-05-31T19:41:49.751Z,27.40
2018-05-31T19:44:24.596Z,27.40
2018-05-31T19:46:56.760Z,27.50
2018-05-31T19:49:26.269Z,27.40
2018-05-31T19:52:00.416Z,27.40
2018-05-31T19:54:30.531Z,27.40
2018-05-31T19:57:00.407Z,27.50
2018-05-31T19:59:39.291Z,27.50
2018-05-31T20:02:17.741Z,27.50
2018-05-31T20:04:48.617Z,27.50
2018-05-31T20:07:18.847Z,27.50
2018-05-31T20:10:03.186Z,27.50
2018-05-31T20:12:34.247Z,27.50
2018-05-31T20:15:06.984Z,27.50
2018-05-31T20:17:36.999Z,27.50
2018-05-31T20:20:08.004Z,27.50
2018-05-31T20:22:36.852Z,27.50
2018-05-31T20:25:08.767Z,27.50
2018-05-31T20:27:42.357Z,27.50
2018-05-31T20:30:20.058Z,27.40
2018-05-31T20:32:49.332Z,27.30
2018-05-31T20:35:19.416Z,27.30
2018-05-31T20:37:47.691Z,27.40
2018-05-31T20:40:17.826Z,27.50
2018-05-31T20:42:46.813Z,27.50
2018-05-31T20:45:15.970Z,27.60
2018-05-31T20:47:43.244Z,27.60
2018-05-31T20:50:11.315Z,27.70
2018-05-31T20:52:44.540Z,27.70
2018-05-31T20:55:29.201Z,27.70
2018-05-31T20:58:01.094Z,27.60
2018-05-31T21:00:28.485Z,27.60
2018-05-31T21:02:55.894Z,27.50
2018-05-31T21:05:24.040Z,27.40
2018-05-31T21:07:52.091Z,27.40
2018-05-31T21:10:23.263Z,27.40
2018-05-31T21:12:54.249Z,27.40
2018-05-31T21:15:21.576Z,27.30
2018-05-31T21:17:58.715Z,27.20
2018-05-31T21:20:29.582Z,27.20
2018-05-31T21:22:57.702Z,27.20
2018-05-31T21:25:27.523Z,27.40
2018-05-31T21:27:57.419Z,27.50
2018-05-31T21:30:32.279Z,27.50
2018-05-31T21:33:03.022Z,27.60
2018-05-31T21:35:36.046Z,27.60
2018-05-31T21:38:04.064Z,27.60
2018-05-31T21:40:40.838Z,27.70
2018-05-31T21:43:09.266Z,27.60
2018-05-31T21:45:37.410Z,27.60
2018-05-31T21:48:08.083Z,27.50
2018-05-31T21:50:35.372Z,27.50
2018-05-31T21:53:07.931Z,27.40
2018-05-31T21:55:37.804Z,26.80
2018-05-31T21:58:06.889Z,26.50
2018-05-31T22:00:42.767Z,25.90
2018-05-31T22:03:15.832Z,25.20
2018-05-31T22:05:55.314Z,23.00
2018-05-31T22:08:25.783Z,20.40
2018-05-31T22:10:54.995Z,19.20
2018-05-31T22:13:23.915Z,19.20
2018-05-31T22:15:55.684Z,19.20
2018-05-31T22:18:26.852Z,19.20
2018-05-31T22:20:55.186Z,19.60
2018-05-31T22:23:23.392Z,19.20
2018-05-31T22:25:50.850Z,19.20
2018-05-31T22:28:18.196Z,18.80
2018-05-31T22:30:46.371Z,18.30
2018-05-31T22:33:14.555Z,18.00
2018-05-31T22:35:41.769Z,18.40
2018-05-31T22:38:09.130Z,17.90
2018-05-31T22:40:39.275Z,17.60
2018-05-31T22:43:06.596Z,17.30
2018-05-31T22:45:33.879Z,17.50
2018-05-31T22:48:01.075Z,18.00
2018-05-31T22:50:38.416Z,18.10
2018-05-31T22:53:05.842Z,18.10
2018-05-31T22:55:35.590Z,18.70
2018-05-31T22:58:07.771Z,18.90
2018-05-31T23:00:36.129Z,18.60
2018-05-31T23:03:03.508Z,18.60
2018-05-31T23:05:32.104Z,19.20
2018-05-31T23:07:59.471Z,19.80
2018-05-31T23:10:27.827Z,20.70
2018-05-31T23:12:56.847Z,20.80
2018-05-31T23:15:26.066Z,21.70
2018-05-31T23:17:54.182Z,22.00
2018-05-31T23:20:22.328Z,21.90
2018-05-31T23:22:49.678Z,22.00
2018-05-31T23:25:19.655Z,22.00
2018-05-31T23:27:46.959Z,20.90
2018-05-31T23:30:14.287Z,20.00
2018-05-31T23:32:41.657Z,19.80
2018-05-31T23:35:12.827Z,19.40
2018-05-31T23:37:40.972Z,19.50
2018-05-31T23:40:11.238Z,19.50
2018-05-31T23:42:39.434Z,19.80
2018-05-31T23:45:06.724Z,19.80
2018-05-31T23:47:35.000Z,19.50
2018-05-31T23:50:02.367Z,20.00
2018-05-31T23:52:31.263Z,19.70
2018-05-31T23:55:00.448Z,19.90
2018-05-31T23:57:27.740Z,19.80
2018-05-31T23:59:55.046Z,19.90
